createdAt,value
2017-08-13T00:01:04.168Z,98584.69
2017-08-13T00:03:33.382Z,98583.03
2017-08-13T00:06:01.754Z,98577.03
2017-08-13T00:08:30.093Z,98577.47
2017-08-13T00:10:58.745Z,98579.06
2017-08-13T00:13:27.075Z,98580.89
2017-08-13T00:15:55.393Z,98575.33
2017-08-13T00:18:23.735Z,98578.79
2017-08-13T00:20:52.071Z,98579.50
2017-08-13T00:23:20.408Z,98577.77
2017-08-13T00:25:48.730Z,98575.06
2017-08-13T00:28:17.338Z,98575.09
2017-08-13T00:30:45.676Z,98564.92
2017-08-13T00:33:14.045Z,98565.12
2017-08-13T00:35:43.160Z,98562.69
2017-08-13T00:38:11.493Z,98568.08
2017-08-13T00:40:39.835Z,98568.38
2017-08-13T00:43:08.161Z,98561.70
2017-08-13T00:45:37.267Z,98559.36
2017-08-13T00:48:05.631Z,98556.72
2017-08-13T00:50:33.971Z,98560.31
2017-08-13T00:53:02.325Z,98562.83
2017-08-13T00:55:30.657Z,98564.11
2017-08-13T00:57:59.101Z,98563.44
2017-08-13T01:00:27.439Z,98560.31
2017-08-13T01:02:55.855Z,98563.13
2017-08-13T01:05:24.215Z,98562.01
2017-08-13T01:07:52.564Z,98560.05
2017-08-13T01:10:21.212Z,98559.67
2017-08-13T01:12:49.551Z,98561.40
2017-08-13T01:15:17.868Z,98564.66
2017-08-13T01:17:46.218Z,98566.11
2017-08-13T01:20:14.545Z,98562.83
2017-08-13T01:22:43.142Z,98565.50
2017-08-13T01:25:11.482Z,98561.94
2017-08-13T01:27:39.814Z,98559.84
2017-08-13T01:30:08.351Z,98562.20
2017-08-13T01:32:36.716Z,98566.01
2017-08-13T01:35:05.073Z,98563.59
2017-08-13T01:37:34.179Z,98564.89
2017-08-13T01:40:02.531Z,98561.90
2017-08-13T01:42:30.889Z,98560.88
2017-08-13T01:44:59.224Z,98562.34
2017-08-13T01:47:28.062Z,98567.92
2017-08-13T01:49:56.412Z,98562.64
2017-08-13T01:52:24.739Z,98562.47
2017-08-13T01:54:53.075Z,98565.63
2017-08-13T01:57:21.419Z,98564.82
2017-08-13T01:59:50.786Z,98566.95
2017-08-13T02:02:19.124Z,98570.11
2017-08-13T02:04:47.478Z,98566.31
2017-08-13T02:07:16.599Z,98563.13
2017-08-13T02:09:44.936Z,98563.13
2017-08-13T02:12:13.297Z,98560.91
2017-08-13T02:14:41.660Z,98556.31
2017-08-13T02:17:10.001Z,98552.78
2017-08-13T02:19:39.168Z,98551.45
2017-08-13T02:22:07.510Z,98551.02
2017-08-13T02:24:35.858Z,98551.08
2017-08-13T02:27:04.204Z,98555.76
2017-08-13T02:29:32.544Z,98555.49
2017-08-13T02:32:00.893Z,98551.16
2017-08-13T02:34:30.519Z,98553.26
2017-08-13T02:36:58.890Z,98552.41
2017-08-13T02:39:27.223Z,98551.50
2017-08-13T02:41:55.973Z,98549.97
2017-08-13T02:44:24.349Z,98548.71
2017-08-13T02:46:52.698Z,98549.94
2017-08-13T02:49:21.807Z,98550.61
2017-08-13T02:51:50.150Z,98556.03
2017-08-13T02:54:18.908Z,98554.10
2017-08-13T02:56:47.247Z,98550.47
2017-08-13T02:59:15.574Z,98554.95
2017-08-13T03:01:43.916Z,98556.95
2017-08-13T03:04:13.024Z,98557.45
2017-08-13T03:06:41.377Z,98555.09
2017-08-13T03:09:09.712Z,98554.10
2017-08-13T03:11:38.455Z,98555.15
2017-08-13T03:14:06.798Z,98545.52
2017-08-13T03:16:35.133Z,98551.48
2017-08-13T03:19:03.484Z,98550.60
2017-08-13T03:21:32.594Z,98543.39
2017-08-13T03:24:00.986Z,98545.48
2017-08-13T03:26:29.312Z,98550.48
2017-08-13T03:28:58.035Z,98552.90
2017-08-13T03:31:26.367Z,98555.59
2017-08-13T03:33:54.693Z,98549.52
2017-08-13T03:36:23.805Z,98553.78
2017-08-13T03:38:52.134Z,98554.27
2017-08-13T03:41:20.523Z,98556.40
2017-08-13T03:43:48.874Z,98555.96
2017-08-13T03:46:17.255Z,98557.01
2017-08-13T03:48:45.607Z,98559.68
2017-08-13T03:51:13.954Z,98567.20
2017-08-13T03:53:42.301Z,98566.39
2017-08-13T03:56:10.637Z,98570.60
2017-08-13T03:58:38.985Z,98565.02
2017-08-13T04:01:07.312Z,98570.94
2017-08-13T04:03:35.634Z,98582.45
2017-08-13T04:06:03.979Z,98581.71
2017-08-13T04:08:32.338Z,98578.84
2017-08-13T04:11:00.696Z,98584.13
2017-08-13T04:13:29.034Z,98582.38
2017-08-13T04:15:57.876Z,98580.14
2017-08-13T04:18:26.215Z,98579.91
2017-08-13T04:20:54.539Z,98583.59
2017-08-13T04:23:23.652Z,98582.14
2017-08-13T04:25:51.975Z,98579.20
2017-08-13T04:28:20.328Z,98585.30
2017-08-13T04:30:48.673Z,98589.34
2017-08-13T04:33:17.447Z,98595.39
2017-08-13T04:35:45.766Z,98596.41
2017-08-13T04:38:14.110Z,98595.49
2017-08-13T04:40:42.486Z,98597.65
2017-08-13T04:43:10.806Z,98585.25
2017-08-13T04:45:39.572Z,98591.93
2017-08-13T04:48:08.675Z,98589.84
2017-08-13T04:50:37.336Z,98585.88
2017-08-13T04:53:05.678Z,98591.45
2017-08-13T04:55:34.033Z,98591.34
2017-08-13T04:58:02.382Z,98594.73
2017-08-13T05:00:31.554Z,98594.70
2017-08-13T05:02:59.910Z,98596.70
2017-08-13T05:05:28.243Z,98598.52
2017-08-13T05:07:56.931Z,98604.15
2017-08-13T05:10:25.258Z,98606.62
2017-08-13T05:12:53.608Z,98608.52
2017-08-13T05:15:21.982Z,98607.58
2017-08-13T05:17:50.362Z,98607.30
2017-08-13T05:20:19.361Z,98609.41
2017-08-13T05:22:47.689Z,98617.56
2017-08-13T05:25:16.525Z,98616.55
2017-08-13T05:27:44.877Z,98622.95
2017-08-13T05:30:13.234Z,98627.98
2017-08-13T05:32:41.577Z,98627.78
2017-08-13T05:35:09.916Z,98627.47
2017-08-13T05:37:39.023Z,98633.82
2017-08-13T05:40:07.373Z,98636.34
2017-08-13T05:42:36.111Z,98637.05
2017-08-13T05:45:04.456Z,98635.45
2017-08-13T05:47:32.787Z,98645.02
2017-08-13T05:50:01.223Z,98645.55
2017-08-13T05:52:29.579Z,98642.74
2017-08-13T05:54:57.936Z,98643.36
2017-08-13T05:57:26.293Z,98644.57
2017-08-13T05:59:54.913Z,98643.53
2017-08-13T06:02:23.246Z,98645.43
2017-08-13T06:04:51.598Z,98647.70
2017-08-13T06:07:19.978Z,98654.49
2017-08-13T06:09:48.342Z,98655.23
2017-08-13T06:12:16.709Z,98655.78
2017-08-13T06:14:45.052Z,98653.67
2017-08-13T06:17:13.481Z,98655.81
2017-08-13T06:19:41.824Z,98651.73
2017-08-13T06:22:10.190Z,98652.19
2017-08-13T06:24:38.528Z,98655.34
2017-08-13T06:27:06.864Z,98661.38
2017-08-13T06:29:35.232Z,98656.30
2017-08-13T06:32:03.573Z,98656.77
2017-08-13T06:34:33.005Z,98652.59
2017-08-13T06:37:01.389Z,98645.98
2017-08-13T06:39:29.725Z,98646.73
2017-08-13T06:41:58.078Z,98644.14
2017-08-13T06:44:26.421Z,98649.16
2017-08-13T06:46:54.780Z,98655.33
2017-08-13T06:49:23.883Z,98658.22
2017-08-13T06:51:52.510Z,98657.14
2017-08-13T06:54:20.826Z,98663.52
2017-08-13T06:56:49.161Z,98661.89
2017-08-13T06:59:17.941Z,98660.02
2017-08-13T07:01:46.255Z,98662.23
2017-08-13T07:04:14.608Z,98668.38
2017-08-13T07:06:42.954Z,98669.22
2017-08-13T07:09:11.307Z,98669.31
2017-08-13T07:11:39.656Z,98666.76
2017-08-13T07:14:08.105Z,98668.18
2017-08-13T07:16:36.449Z,98670.08
2017-08-13T07:19:04.782Z,98673.23
2017-08-13T07:21:33.154Z,98669.58
2017-08-13T07:24:01.498Z,98671.92
2017-08-13T07:26:30.113Z,98669.41
2017-08-13T07:28:58.437Z,98675.37
2017-08-13T07:31:27.177Z,98672.14
2017-08-13T07:33:55.588Z,98674.34
2017-08-13T07:36:23.920Z,98670.06
2017-08-13T07:38:53.042Z,98669.98
2017-08-13T07:41:21.378Z,98676.42
2017-08-13T07:43:50.168Z,98677.51
2017-08-13T07:46:18.508Z,98678.89
2017-08-13T07:48:46.826Z,98678.24
2017-08-13T07:51:15.165Z,98690.28
2017-08-13T07:53:43.728Z,98692.98
2017-08-13T07:56:12.607Z,98692.52
2017-08-13T07:58:40.953Z,98695.06
2017-08-13T08:01:09.278Z,98693.70
2017-08-13T08:03:37.630Z,98696.86
2017-08-13T08:06:05.963Z,98697.31
2017-08-13T08:08:34.300Z,98703.64
2017-08-13T08:11:02.656Z,98696.97
2017-08-13T08:13:31.365Z,98705.67
2017-08-13T08:15:59.695Z,98693.29
2017-08-13T08:18:28.038Z,98704.63
2017-08-13T08:20:56.407Z,98705.14
2017-08-13T08:23:24.747Z,98707.00
2017-08-13T08:25:53.099Z,98707.13
2017-08-13T08:28:21.421Z,98707.36
2017-08-13T08:30:50.060Z,98704.80
2017-08-13T08:33:18.411Z,98699.36
2017-08-13T08:35:47.247Z,98697.20
2017-08-13T08:38:15.611Z,98711.83
2017-08-13T08:40:43.967Z,98701.48
2017-08-13T08:43:12.321Z,98705.84
2017-08-13T08:45:40.651Z,98705.22
2017-08-13T08:48:09.242Z,98699.31
2017-08-13T08:50:37.565Z,98705.89
2017-08-13T08:53:05.900Z,98702.44
2017-08-13T08:55:34.264Z,98710.84
2017-08-13T08:58:02.605Z,98714.98
2017-08-13T09:00:30.983Z,98723.79
2017-08-13T09:02:59.330Z,98719.11
2017-08-13T09:05:28.156Z,98723.92
2017-08-13T09:07:56.491Z,98724.55
2017-08-13T09:10:24.805Z,98720.33
2017-08-13T09:12:53.145Z,98721.70
2017-08-13T09:15:21.531Z,98713.87
2017-08-13T09:17:50.510Z,98714.77
2017-08-13T09:20:19.410Z,98713.91
2017-08-13T09:22:48.979Z,98711.52
2017-08-13T09:25:17.777Z,98711.80
2017-08-13T09:27:46.613Z,98714.16
2017-08-13T09:30:15.686Z,98718.40
2017-08-13T09:32:44.665Z,98719.46
2017-08-13T09:35:13.596Z,98710.39
2017-08-13T09:37:41.932Z,98713.80
2017-08-13T09:40:10.283Z,98711.44
2017-08-13T09:42:38.638Z,98708.57
2017-08-13T09:45:06.964Z,98715.98
2017-08-13T09:47:35.312Z,98720.67
2017-08-13T09:50:03.657Z,98714.45
2017-08-13T09:52:32.002Z,98717.75
2017-08-13T09:55:00.352Z,98724.84
2017-08-13T09:57:28.704Z,98717.75
2017-08-13T09:59:57.761Z,98725.80
2017-08-13T10:02:26.107Z,98709.41
2017-08-13T10:04:54.477Z,98723.39
2017-08-13T10:07:22.792Z,98718.38
2017-08-13T10:09:51.907Z,98719.34
2017-08-13T10:12:20.231Z,98717.09
2017-08-13T10:14:48.955Z,98723.00
2017-08-13T10:17:17.373Z,98715.94
2017-08-13T10:19:45.723Z,98719.06
2017-08-13T10:22:14.065Z,98720.58
2017-08-13T10:24:42.398Z,98710.94
2017-08-13T10:27:10.748Z,98717.33
2017-08-13T10:29:39.844Z,98712.37
2017-08-13T10:32:08.550Z,98709.77
2017-08-13T10:34:36.905Z,98712.37
2017-08-13T10:37:05.255Z,98714.56
2017-08-13T10:39:33.632Z,98716.98
2017-08-13T10:42:01.966Z,98717.05
2017-08-13T10:44:30.332Z,98715.78
2017-08-13T10:46:59.471Z,98713.77
2017-08-13T10:49:27.836Z,98721.37
2017-08-13T10:51:56.205Z,98714.69
2017-08-13T10:54:24.549Z,98709.61
2017-08-13T10:56:52.910Z,98713.41
2017-08-13T10:59:21.322Z,98716.47
2017-08-13T11:01:49.680Z,98712.23
2017-08-13T11:04:18.031Z,98719.04
2017-08-13T11:06:46.415Z,98709.89
2017-08-13T11:09:15.503Z,98714.49
2017-08-13T11:11:43.835Z,98718.45
2017-08-13T11:14:12.167Z,98719.27
2017-08-13T11:16:40.487Z,98718.31
2017-08-13T11:19:08.844Z,98720.80
2017-08-13T11:21:37.206Z,98716.36
2017-08-13T11:24:05.529Z,98715.07
2017-08-13T11:26:33.889Z,98718.46
2017-08-13T11:29:02.219Z,98721.49
2017-08-13T11:31:30.554Z,98717.76
2017-08-13T11:33:58.891Z,98718.94
2017-08-13T11:36:27.228Z,98730.06
2017-08-13T11:38:55.620Z,98729.25
2017-08-13T11:41:24.733Z,98726.16
2017-08-13T11:43:53.086Z,98720.20
2017-08-13T11:46:22.295Z,98721.05
2017-08-13T11:48:51.413Z,98720.50
2017-08-13T11:51:19.791Z,98718.20
2017-08-13T11:53:48.400Z,98715.29
2017-08-13T11:56:16.748Z,98710.97
2017-08-13T11:58:45.125Z,98714.38
2017-08-13T12:01:13.485Z,98702.36
2017-08-13T12:03:42.583Z,98705.45
2017-08-13T12:06:11.006Z,98711.17
2017-08-13T12:08:39.337Z,98704.14
2017-08-13T12:11:08.044Z,98701.27
2017-08-13T12:13:36.405Z,98706.11
2017-08-13T12:16:04.735Z,98706.52
2017-08-13T12:18:33.082Z,98702.38
2017-08-13T12:21:02.751Z,98708.02
2017-08-13T12:23:31.103Z,98703.48
2017-08-13T12:25:59.419Z,98702.84
2017-08-13T12:28:28.242Z,98701.82
2017-08-13T12:30:56.582Z,98698.72
2017-08-13T12:33:24.915Z,98702.31
2017-08-13T12:35:53.263Z,98700.67
2017-08-13T12:38:21.589Z,98703.88
2017-08-13T12:40:50.770Z,98704.76
2017-08-13T12:43:19.095Z,98703.59
2017-08-13T12:45:47.840Z,98708.20
2017-08-13T12:48:16.167Z,98706.94
2017-08-13T12:50:44.524Z,98706.84
2017-08-13T12:53:12.877Z,98700.36
2017-08-13T12:55:41.222Z,98706.05
2017-08-13T12:58:09.585Z,98693.97
2017-08-13T13:00:37.909Z,98697.19
2017-08-13T13:03:06.535Z,98707.94
2017-08-13T13:05:34.881Z,98706.20
2017-08-13T13:08:03.243Z,98707.00
2017-08-13T13:10:31.590Z,98702.93
2017-08-13T13:12:59.929Z,98699.36
2017-08-13T13:15:28.334Z,98698.80
2017-08-13T13:17:56.722Z,98702.09
2017-08-13T13:20:25.049Z,98701.22
2017-08-13T13:22:53.406Z,98700.63
2017-08-13T13:25:22.520Z,98690.34
2017-08-13T13:27:50.849Z,98697.28
2017-08-13T13:30:19.212Z,98695.27
2017-08-13T13:32:47.559Z,98697.05
2017-08-13T13:35:15.927Z,98700.28
2017-08-13T13:37:45.040Z,98702.77
2017-08-13T13:40:13.674Z,98709.62
2017-08-13T13:42:42.027Z,98708.62
2017-08-13T13:45:10.355Z,98705.56
2017-08-13T13:47:38.727Z,98708.61
2017-08-13T13:50:07.871Z,98699.47
2017-08-13T13:52:36.213Z,98702.13
2017-08-13T13:55:04.552Z,98707.59
2017-08-13T13:57:33.512Z,98713.89
2017-08-13T14:00:02.664Z,98707.88
2017-08-13T14:02:31.002Z,98708.44
2017-08-13T14:04:59.367Z,98706.23
2017-08-13T14:07:27.679Z,98705.09
2017-08-13T14:09:56.437Z,98702.54
2017-08-13T14:12:24.762Z,98712.12
2017-08-13T14:14:53.116Z,98700.94
2017-08-13T14:17:21.456Z,98701.04
2017-08-13T14:19:49.887Z,98705.09
2017-08-13T14:22:18.470Z,98704.33
2017-08-13T14:24:46.799Z,98710.23
2017-08-13T14:27:15.142Z,98711.27
2017-08-13T14:29:43.509Z,98712.09
2017-08-13T14:32:11.826Z,98714.56
2017-08-13T14:34:40.576Z,98708.92
2017-08-13T14:37:08.893Z,98721.95
2017-08-13T14:39:37.215Z,98717.76
2017-08-13T14:42:05.554Z,98718.64
2017-08-13T14:44:33.889Z,98718.23
2017-08-13T14:47:02.753Z,98714.05
2017-08-13T14:49:31.071Z,98713.95
2017-08-13T14:51:59.407Z,98716.14
2017-08-13T14:54:28.521Z,98708.14
2017-08-13T14:56:56.854Z,98705.14
2017-08-13T14:59:25.216Z,98703.58
2017-08-13T15:01:53.570Z,98709.80
2017-08-13T15:04:21.999Z,98704.81
2017-08-13T15:06:50.359Z,98706.83
2017-08-13T15:09:18.702Z,98709.06
2017-08-13T15:11:47.041Z,98708.48
2017-08-13T15:14:15.395Z,98714.26
2017-08-13T15:16:43.715Z,98707.66
2017-08-13T15:19:12.377Z,98713.78
2017-08-13T15:21:40.711Z,98715.52
2017-08-13T15:24:09.041Z,98714.78
2017-08-13T15:26:37.421Z,98715.39
2017-08-13T15:29:05.765Z,98708.52
2017-08-13T15:31:34.138Z,98709.45
2017-08-13T15:34:02.479Z,98705.42
2017-08-13T15:36:31.597Z,98715.27
2017-08-13T15:38:59.940Z,98703.63
2017-08-13T15:41:28.282Z,98704.36
2017-08-13T15:43:56.649Z,98700.55
2017-08-13T15:46:24.995Z,98701.20
2017-08-13T15:48:54.068Z,98706.23
2017-08-13T15:51:22.585Z,98697.26
2017-08-13T15:53:50.971Z,98693.53
2017-08-13T15:56:19.895Z,98695.14
2017-08-13T15:58:48.224Z,98695.36
2017-08-13T16:01:16.545Z,98692.37
2017-08-13T16:03:44.914Z,98697.84
2017-08-13T16:06:13.252Z,98694.09
2017-08-13T16:08:42.678Z,98694.02
2017-08-13T16:11:11.008Z,98694.85
2017-08-13T16:13:39.337Z,98689.69
2017-08-13T16:16:07.689Z,98694.48
2017-08-13T16:18:36.034Z,98695.44
2017-08-13T16:21:04.674Z,98694.36
2017-08-13T16:23:33.447Z,98691.80
2017-08-13T16:26:01.762Z,98687.08
2017-08-13T16:28:30.121Z,98686.09
2017-08-13T16:30:58.473Z,98692.32
2017-08-13T16:33:27.097Z,98690.58
2017-08-13T16:35:55.544Z,98689.05
2017-08-13T16:38:23.870Z,98689.98
2017-08-13T16:40:52.203Z,98689.66
2017-08-13T16:43:20.531Z,98692.86
2017-08-13T16:45:48.883Z,98692.98
2017-08-13T16:48:17.979Z,98693.71
2017-08-13T16:50:46.350Z,98692.70
2017-08-13T16:53:14.708Z,98692.66
2017-08-13T16:55:43.030Z,98698.93
2017-08-13T16:58:11.412Z,98691.09
2017-08-13T17:00:39.749Z,98698.61
2017-08-13T17:03:08.103Z,98702.74
2017-08-13T17:05:36.441Z,98701.22
2017-08-13T17:08:04.851Z,98701.96
2017-08-13T17:10:33.208Z,98710.14
2017-08-13T17:13:01.554Z,98704.78
2017-08-13T17:15:29.905Z,98702.98
2017-08-13T17:17:58.287Z,98704.22
2017-08-13T17:20:26.648Z,98711.01
2017-08-13T17:22:54.973Z,98709.59
2017-08-13T17:25:23.353Z,98703.81
2017-08-13T17:27:51.798Z,98703.55
2017-08-13T17:30:20.130Z,98705.75
2017-08-13T17:32:48.488Z,98707.10
2017-08-13T17:35:16.808Z,98705.41
2017-08-13T17:37:45.178Z,98710.92
2017-08-13T17:40:13.585Z,98711.27
2017-08-13T17:42:41.959Z,98713.28
2017-08-13T17:45:10.327Z,98706.28
2017-08-13T17:47:38.656Z,98712.44
2017-08-13T17:50:07.020Z,98713.09
2017-08-13T17:52:35.359Z,98710.30
2017-08-13T17:55:04.276Z,98712.95
2017-08-13T17:57:32.614Z,98711.48
2017-08-13T18:00:00.971Z,98715.56
2017-08-13T18:02:29.329Z,98718.95
2017-08-13T18:04:58.224Z,98716.77
2017-08-13T18:07:26.566Z,98716.40
2017-08-13T18:09:54.918Z,98723.44
2017-08-13T18:12:23.842Z,98720.55
2017-08-13T18:14:52.220Z,98723.28
2017-08-13T18:17:20.608Z,98717.80
2017-08-13T18:19:48.965Z,98721.75
2017-08-13T18:22:17.315Z,98728.55
2017-08-13T18:24:45.670Z,98727.83
2017-08-13T18:27:14.009Z,98728.14
2017-08-13T18:29:42.372Z,98731.97
2017-08-13T18:32:11.487Z,98729.20
2017-08-13T18:34:39.827Z,98734.66
2017-08-13T18:37:09.120Z,98738.08
2017-08-13T18:39:37.470Z,98741.35
2017-08-13T18:42:05.822Z,98746.49
2017-08-13T18:44:34.925Z,98741.67
2017-08-13T18:47:04.268Z,98742.82
2017-08-13T18:49:32.606Z,98741.73
2017-08-13T18:52:00.960Z,98746.22
2017-08-13T18:54:29.333Z,98748.81
2017-08-13T18:56:57.688Z,98754.45
2017-08-13T18:59:26.050Z,98760.05
2017-08-13T19:01:55.008Z,98759.16
2017-08-13T19:04:24.157Z,98767.96
2017-08-13T19:06:52.510Z,98771.77
2017-08-13T19:09:20.839Z,98770.38
2017-08-13T19:11:49.189Z,98777.08
2017-08-13T19:14:17.528Z,98780.95
2017-08-13T19:16:46.923Z,98789.41
2017-08-13T19:19:15.259Z,98785.84
2017-08-13T19:21:43.581Z,98792.84
2017-08-13T19:24:12.719Z,98793.16
2017-08-13T19:26:41.047Z,98791.69
2017-08-13T19:29:09.761Z,98795.62
2017-08-13T19:31:38.087Z,98798.45
2017-08-13T19:34:07.461Z,98805.83
2017-08-13T19:36:35.829Z,98803.03
2017-08-13T19:39:05.057Z,98805.82
2017-08-13T19:41:33.416Z,98807.19
2017-08-13T19:44:01.781Z,98807.59
2017-08-13T19:46:30.429Z,98810.45
2017-08-13T19:48:59.916Z,98809.27
2017-08-13T19:51:28.272Z,98803.30
2017-08-13T19:53:56.626Z,98811.39
2017-08-13T19:56:24.954Z,98804.47
2017-08-13T19:58:53.317Z,98808.72
2017-08-13T20:01:21.667Z,98813.28
2017-08-13T20:03:50.422Z,98806.47
2017-08-13T20:06:18.767Z,98808.44
2017-08-13T20:08:48.040Z,98803.84
2017-08-13T20:11:16.398Z,98808.33
2017-08-13T20:13:45.507Z,98808.77
2017-08-13T20:16:13.874Z,98812.10
2017-08-13T20:18:42.205Z,98816.18
2017-08-13T20:21:10.564Z,98813.89
2017-08-13T20:23:39.856Z,98815.92
2017-08-13T20:26:08.258Z,98814.28
2017-08-13T20:28:36.646Z,98821.19
2017-08-13T20:31:04.988Z,98818.86
2017-08-13T20:33:34.129Z,98823.73
2017-08-13T20:36:02.491Z,98825.36
2017-08-13T20:38:31.205Z,98824.66
2017-08-13T20:40:59.565Z,98826.58
2017-08-13T20:43:27.892Z,98824.73
2017-08-13T20:45:56.271Z,98830.34
2017-08-13T20:48:24.731Z,98832.99
2017-08-13T20:50:53.085Z,98833.17
2017-08-13T20:53:21.413Z,98830.45
2017-08-13T20:55:49.756Z,98830.53
2017-08-13T20:58:18.093Z,98830.64
2017-08-13T21:00:47.205Z,98831.77
2017-08-13T21:03:15.554Z,98833.50
2017-08-13T21:05:43.916Z,98827.09
2017-08-13T21:08:12.261Z,98829.73
2017-08-13T21:10:40.590Z,98828.18
2017-08-13T21:13:08.920Z,98829.06
2017-08-13T21:15:37.700Z,98834.99
2017-08-13T21:18:06.027Z,98833.45
2017-08-13T21:20:34.377Z,98837.91
2017-08-13T21:23:02.723Z,98839.94
2017-08-13T21:25:31.350Z,98848.49
2017-08-13T21:27:59.682Z,98848.67
2017-08-13T21:30:28.020Z,98848.58
2017-08-13T21:32:56.389Z,98848.23
2017-08-13T21:35:24.725Z,98849.22
2017-08-13T21:37:53.095Z,98850.76
2017-08-13T21:40:22.174Z,98847.52
2017-08-13T21:42:50.516Z,98847.32
2017-08-13T21:45:18.873Z,98843.02
2017-08-13T21:47:47.213Z,98841.70
2017-08-13T21:50:15.937Z,98845.17
2017-08-13T21:52:44.273Z,98845.95
2017-08-13T21:55:13.396Z,98844.89
2017-08-13T21:57:41.906Z,98844.63
2017-08-13T22:00:10.343Z,98847.73
2017-08-13T22:02:38.698Z,98850.06
2017-08-13T22:05:07.732Z,98847.48
2017-08-13T22:07:36.887Z,98849.20
2017-08-13T22:10:05.207Z,98848.64
2017-08-13T22:12:33.637Z,98844.33
2017-08-13T22:15:01.969Z,98844.46
2017-08-13T22:17:30.356Z,98837.95
2017-08-13T22:19:58.695Z,98840.66
2017-08-13T22:22:27.044Z,98839.71
2017-08-13T22:24:55.409Z,98840.36
2017-08-13T22:27:23.736Z,98834.16
2017-08-13T22:29:52.106Z,98836.02
2017-08-13T22:32:20.443Z,98840.25
2017-08-13T22:34:48.801Z,98834.68
2017-08-13T22:37:17.172Z,98831.91
2017-08-13T22:39:45.507Z,98832.66
2017-08-13T22:42:13.857Z,98833.06
2017-08-13T22:44:42.247Z,98830.61
2017-08-13T22:47:10.913Z,98827.50
2017-08-13T22:49:39.248Z,98825.75
2017-08-13T22:52:07.613Z,98824.23
2017-08-13T22:54:35.974Z,98833.04
2017-08-13T22:57:04.304Z,98830.66
2017-08-13T22:59:32.645Z,98840.00
2017-08-13T23:02:00.974Z,98841.12
2017-08-13T23:04:29.558Z,98846.41
2017-08-13T23:06:57.871Z,98842.45
2017-08-13T23:09:26.267Z,98834.25
2017-08-13T23:11:54.608Z,98834.89
2017-08-13T23:14:23.699Z,98845.13
2017-08-13T23:16:52.155Z,98841.38
2017-08-13T23:19:20.501Z,98839.91
2017-08-13T23:21:50.243Z,98840.63
2017-08-13T23:24:18.752Z,98837.61
2017-08-13T23:26:47.095Z,98840.05
2017-08-13T23:29:15.528Z,98838.39
2017-08-13T23:31:43.855Z,98838.06
2017-08-13T23:34:12.575Z,98836.67
2017-08-13T23:36:40.896Z,98836.41
2017-08-13T23:39:09.223Z,98834.04
2017-08-13T23:41:37.569Z,98836.09
2017-08-13T23:44:05.878Z,98823.46
2017-08-13T23:46:34.217Z,98823.94
2017-08-13T23:49:02.536Z,98817.52
2017-08-13T23:51:31.243Z,98816.66
2017-08-13T23:53:59.578Z,98814.81
2017-08-13T23:56:27.908Z,98812.89
2017-08-13T23:58:57.018Z,98813.77
